METAR AND TAF INFORMATION
METAR FOR EHWO
ADDS - METARS form results

(1726 UTC 22 October 2017)
Data provider http://aviationweather.gov/adds/metars/
 
METAR text: EHWO 221725Z AUTO 24010KT 200V270 9999 +DZ FEW015CB SCT024 BKN031 10/08 Q1013 WHT
Conditions at: EHWO (WOENSDRECHT RNLA, NL) observed 1725 UTC 22 October 2017
Temperature: 10.0°C (50°F)
Dewpoint: 8.0°C (46°F) [RH = 87%]
Pressure (altimeter): 29.91 inches Hg (1013.0 mb)
Winds: from the WSW (240 degrees) at 12 MPH (10 knots; 5.2 m/s)
Visibility: 6 or more miles (10+ km)
Ceiling: 3100 feet AGL
Clouds: few clouds at 1500 feet AGL
scattered clouds at 2400 feet AGL
broken clouds at 3100 feet AGL
Weather: +DZ  (heavy drizzle)

METAR text: EHWO 221719Z AUTO 23010KT 200V280 9999 -DZRA FEW015CB BKN030 OVC037 10/08 Q1013 BLU
Conditions at: EHWO (WOENSDRECHT RNLA, NL) observed 1719 UTC 22 October 2017
Temperature: 10.0°C (50°F)
Dewpoint: 8.0°C (46°F) [RH = 87%]
Pressure (altimeter): 29.91 inches Hg (1013.0 mb)
Winds: from the SW (230 degrees) at 12 MPH (10 knots; 5.2 m/s)
Visibility: 6 or more miles (10+ km)
Ceiling: 3000 feet AGL
Clouds: few clouds at 1500 feet AGL
broken clouds at 3000 feet AGL
overcast cloud deck at 3700 feet AGL
Weather: -DZ -RA  (light drizzle, light rain)

METAR text: EHWO 221655Z AUTO 23010KT 210V270 9999 FEW015CB SCT025 BKN028 10/08 Q1013 BLU
Conditions at: EHWO (WOENSDRECHT RNLA, NL) observed 1655 UTC 22 October 2017
Temperature: 10.0°C (50°F)
Dewpoint: 8.0°C (46°F) [RH = 87%]
Pressure (altimeter): 29.91 inches Hg (1013.0 mb)
Winds: from the SW (230 degrees) at 12 MPH (10 knots; 5.2 m/s)
Visibility: 6 or more miles (10+ km)
Ceiling: 2800 feet AGL
Clouds: few clouds at 1500 feet AGL
scattered clouds at 2500 feet AGL
broken clouds at 2800 feet AGL
Weather: no significant weather observed at this time

METAR text: EHWO 221640Z AUTO 22007KT 9999 -DZRA FEW032 SCT044 BKN049 10/09 Q1013 BLU
Conditions at: EHWO (WOENSDRECHT RNLA, NL) observed 1640 UTC 22 October 2017
Temperature: 10.0°C (50°F)
Dewpoint: 9.0°C (48°F) [RH = 93%]
Pressure (altimeter): 29.91 inches Hg (1013.0 mb)
Winds: from the SW (220 degrees) at 8 MPH (7 knots; 3.6 m/s)
Visibility: 6 or more miles (10+ km)
Ceiling: 4900 feet AGL
Clouds: few clouds at 3200 feet AGL
scattered clouds at 4400 feet AGL
broken clouds at 4900 feet AGL
Weather: -DZ -RA  (light drizzle, light rain)

METAR text: EHWO 221636Z AUTO 23007KT 9999 SCT039 BKN044 BKN049 10/09 Q1013 BLU
Conditions at: EHWO (WOENSDRECHT RNLA, NL) observed 1636 UTC 22 October 2017
Temperature: 10.0°C (50°F)
Dewpoint: 9.0°C (48°F) [RH = 93%]
Pressure (altimeter): 29.91 inches Hg (1013.0 mb)
Winds: from the SW (230 degrees) at 8 MPH (7 knots; 3.6 m/s)
Visibility: 6 or more miles (10+ km)
Ceiling: 4400 feet AGL
Clouds: scattered clouds at 3900 feet AGL
broken clouds at 4400 feet AGL
broken clouds at 4900 feet AGL
Weather: no significant weather observed at this time

 AIRPORT MAP

 RUNWAY INFORMATION
Runway 07 Runway length 7996 ft Runway width 148 ft
Runway elevation 39 ft Runway displaced threshold 0 ft Runway heading 69
Runway 25 Runway length 7996 ft Runway width 148 ft
Runway elevation 63 ft Runway displaced threshold 0 ft Runway heading 249

 AIRPORT FREQUENCIES
Type APP Name RAPCON WES Frequency 123.575 MHZ
Type ARR Name ARRIVAL Frequency 123.575 MHZ
Type TWR Name TWR Frequency 118.5 MHZ

 AIRPORT NEAR NAVIGATION AIDS
Type TACAN Name Woensdrecht Frequency 115000 KHZ